This is the latest recevied weather packets stored in our database for station/object W4MLN-3. If no packets are shown the sender has not sent any weather packets the latest 1 day(s).
| Time | Temp. | Humidity | Pressure | Rain* | Wind** | Luminosity | Snow |
|---|---|---|---|---|---|---|---|
| 1778017503 | 18.33° C | 44% | 1013.7 hPa | 0 mm | 3.58 m/s, 171° | - | - |
| 1778017203 | 18.89° C | 44% | 1013.8 hPa | 0 mm | 3.58 m/s, 167° | - | - |
| 1778016903 | 18.33° C | 44% | 1013.9 hPa | 0 mm | 3.58 m/s, 164° | - | - |
| 1778016603 | 18.33° C | 44% | 1013.9 hPa | 0 mm | 3.58 m/s, 171° | - | - |
| 1778016303 | 18.33° C | 43% | 1013.9 hPa | 0 mm | 3.58 m/s, 172° | - | - |
| 1778016003 | 18.89° C | 42% | 1013.9 hPa | 0 mm | 3.13 m/s, 174° | - | - |
| 1778015724 | 18.89° C | 42% | 1013.9 hPa | 0 mm | 3.13 m/s, 171° | - | - |
| 1778015403 | 19.44° C | 41% | 1014 hPa | 0 mm | 3.13 m/s, 161° | - | - |
| 1778015103 | 19.44° C | 42% | 1014.1 hPa | 0 mm | 2.24 m/s, 173° | - | - |
| 1778014803 | 20° C | 42% | 1014.1 hPa | 0 mm | 1.79 m/s, 192° | - | - |
| 1778014503 | 20° C | 43% | 1014.1 hPa | 0 mm | 2.24 m/s, 181° | - | - |
| 1778014203 | 20° C | 42% | 1014 hPa | 0 mm | 2.24 m/s, 173° | - | - |
| 1778013903 | 20° C | 43% | 1013.9 hPa | 0 mm | 1.79 m/s, 182° | - | - |
| 1778013603 | 20° C | 43% | 1014 hPa | 0 mm | 2.24 m/s, 181° | - | - |
| 1778013303 | 19.44° C | 43% | 1014 hPa | 0 mm | 3.13 m/s, 170° | - | - |
| 1778013003 | 20° C | 42% | 1014.1 hPa | 0 mm | 3.58 m/s, 169° | - | - |
| 1778012703 | 20° C | 42% | 1014.3 hPa | 0 mm | 2.68 m/s, 180° | - | - |
| 1778012404 | 20° C | 43% | 1014.2 hPa | 0 mm | 2.68 m/s, 178° | - | - |
| 1778012103 | 20° C | 43% | 1014.2 hPa | 0 mm | 2.24 m/s, 166° | - | - |
| 1778011803 | 20° C | 43% | 1014.1 hPa | 0 mm | 2.24 m/s, 186° | - | - |
| 1778011545 | 20° C | 43% | 1014.1 hPa | 0 mm | 2.24 m/s, 190° | - | - |
| 1778011203 | 20° C | 44% | 1014.3 hPa | 0 mm | 2.68 m/s, 173° | - | - |
| 1778010903 | 20° C | 43% | 1014.4 hPa | 0 mm | 3.58 m/s, 169° | - | - |
| 1778010603 | 20° C | 43% | 1014.5 hPa | 0 mm | 3.13 m/s, 166° | - | - |
| 1778010303 | 20° C | 44% | 1014.5 hPa | 0 mm | 2.68 m/s, 173° | - | - |
* Rain latest hour (hover to see other rain measurements)
** Current wind speed in m/s (hover to see current wind gust speed)